Home > Products > Valid Products > TAF

000
FTUS43 KLOT 290800 AAA
TAFGYY
TAF AMD
KGYY 290828Z 2908/3006 14006KT P6SM SCT050 OVC120
     FM291300 17009KT P6SM SCT050 BKN100
     FM291700 19013G20KT P6SM VCSH SCT060 BKN150 PROB30 2919/2923
      5SM TSRA BR BKN050CB
     FM300200 18010KT P6SM BKN050 OVC100=



000
FTUS43 KLOT 290800 AAB
TAFRFD
TAF AMD
KRFD 290828Z 2908/3006 15004KT 3SM BR SCT050 BKN120
     FM291300 17009KT P6SM BKN050 OVC100
     FM291700 19013G20KT P6SM VCSH SCT060 BKN120 PROB30 2919/2923
      5SM TSRA BR BKN050CB
     FM300200 18010KT P6SM BKN050 OVC100=



000
FTUS43 KLOT 290800 AAA
TAFDPA
TAF AMD
KDPA 290828Z 2908/3006 16006KT 6SM BR OVC100
     FM291000 16004KT 4SM BR SCT050 BKN120
     FM291300 17009KT P6SM BKN050 OVC080
     FM291700 19013G20KT P6SM VCSH SCT060 BKN150 PROB30 2919/2923
      5SM TSRA BR BKN050CB
     FM300200 18010KT P6SM BKN050 OVC100=



000
FTUS43 KLOT 290800 AAA
TAFGYY
TAF AMD
KGYY 290828Z 2908/3006 14006KT P6SM SCT050 OVC120
     FM291300 17009KT P6SM SCT050 BKN100
     FM291700 19013G20KT P6SM VCSH SCT060 BKN150 PROB30 2919/2923
      5SM TSRA BR BKN050CB
     FM300200 18010KT P6SM BKN050 OVC100=



000
FTUS43 KLOT 290800 AAA
TAFMDW
TAF AMD
KMDW 290828Z 2908/3006 16007KT P6SM SCT060 OVC140
     FM291300 17009KT P6SM BKN060 OVC080
     FM291800 19013G20KT P6SM VCSH SCT060 BKN150 PROB30 2919/2923
      5SM TSRA BR BKN050CB
     FM300200 18010KT P6SM BKN050 OVC100=



000
FTUS43 KLOT 290800 AAA
TAFORD
TAF AMD
KORD 290828Z 2908/3012 16007KT P6SM SCT060 OVC140
     FM291300 17009KT P6SM BKN060 OVC080
     FM291700 19013G20KT P6SM VCSH SCT060 BKN150 PROB30 2919/2923
      5SM TSRA BR BKN050CB
     FM300200 18010KT P6SM BKN050 OVC100=



000
FTUS43 KLOT 290600 AAA
TAFRFD
TAF AMD
KRFD 290610Z 2906/3006 15004KT 3SM BR SCT050 BKN120
     FM291100 14007KT 6SM BR VCSH BKN050 OVC100
     FM291400 16008KT P6SM SCT020 BKN050
     FM291800 19013G20KT P6SM VCSH SCT060 BKN120 PROB30 2919/2923
      5SM TSRA BR BKN050CB
     FM300200 18010KT P6SM BKN050 OVC100=



000
FTUS43 KLOT 290500 CCA
TAFRFD
TAF COR
KRFD 290555Z 2906/3006 12007KT P6SM BKN070 OVC150
     FM290800 13004KT 4SM BR SCT050 BKN120
     FM291100 14007KT 6SM BR VCSH BKN050 OVC100
     FM291400 16008KT P6SM SCT020 BKN050
     FM291800 19013G20KT P6SM VCSH SCT060 BKN120 PROB30 2919/2923
      5SM TSRA BR BKN050CB
     FM300200 18010KT P6SM BKN050 OVC100=



000
FTUS43 KLOT 290500 CCA
TAFDPA
TAF COR
KDPA 290553Z 2906/3006 13005KT 6SM BR OVC140
     FM290800 14004KT 4SM BR SCT050 BKN120
     FM291100 15008KT P6SM VCSH BKN050 OVC080
     FM291500 19008KT P6SM SCT050 BKN100
     FM291800 19013G20KT P6SM VCSH SCT060 BKN150 PROB30 2919/2923
      5SM TSRA BR BKN050CB
     FM300200 18010KT P6SM BKN050 OVC100=



000
FTUS43 KLOT 290500 RRA
TAFGYY
TAF
KGYY 290543Z 2906/3006 12004KT P6SM -RA SCT050 OVC120
     FM291200 17008KT P6SM VCSH BKN050 OVC080
     FM291500 19008KT P6SM SCT050 BKN100
     FM291800 19013G20KT P6SM VCSH SCT060 BKN150 PROB30 2919/2923
      5SM TSRA BR BKN050CB
     FM300200 18010KT P6SM BKN050 OVC100=



000
FTUS43 KLOT 290500 RRA
TAFORD
TAF
KORD 290543Z 2906/3012 14005KT P6SM SCT060 OVC140
     FM291100 17008KT P6SM VCSH BKN050 OVC080
     FM291500 19008KT P6SM SCT050 BKN100
     FM291800 19013G20KT P6SM VCSH SCT060 BKN150 PROB30 2919/2923
      5SM TSRA BR BKN050CB
     FM300200 18010KT P6SM BKN050 OVC100=



000
FTUS43 KLOT 290500 RRA
TAFGYY
TAF
KGYY 290543Z 2906/3006 12004KT P6SM -RA SCT050 OVC120
     FM291200 17008KT P6SM VCSH BKN050 OVC080
     FM291500 19008KT P6SM SCT050 BKN100
     FM291800 19013G20KT P6SM VCSH SCT060 BKN150 PROB30 2919/2923
      5SM TSRA BR BKN050CB
     FM300200 18010KT P6SM BKN050 OVC100=



000
FTUS43 KLOT 290500 RRA
TAFDPA
TAF
KDPA 290543Z 2906/3006 13005KT 6SM BR SCT050 OVC140
     FM291100 15008KT P6SM VCSH BKN050 OVC080
     FM291500 19008KT P6SM SCT050 BKN100
     FM291800 19013G20KT P6SM VCSH SCT060 BKN150 PROB30 2919/2923
      5SM TSRA BR BKN050CB
     FM300200 18010KT P6SM BKN050 OVC100=



000
FTUS43 KLOT 290500 RRA
TAFRFD
TAF
KRFD 290543Z 2906/3006 13007KT P6SM BKN070 OVC150
     FM290900 13007KT 6SM BR VCSH BKN050 OVC100
     FM291200 16008KT P6SM SCT020 BKN050
     FM291800 19013G20KT P6SM VCSH SCT060 BKN120 PROB30 2919/2923
      5SM TSRA BR BKN050CB
     FM300200 18010KT P6SM BKN050 OVC100=



000
FTUS43 KLOT 290500 RRA
TAFMDW
TAF
KMDW 290543Z 2906/3006 14005KT P6SM SCT060 OVC140
     FM291100 17008KT P6SM VCSH BKN050 OVC080
     FM291500 19008KT P6SM SCT050 BKN100
     FM291800 19013G20KT P6SM VCSH SCT060 BKN150 PROB30 2919/2923
      5SM TSRA BR BKN050CB
     FM300200 18010KT P6SM BKN050 OVC100=



000
FTUS43 KLOT 290200 AAA
TAFGYY
TAF AMD
KGYY 290258Z 2903/2924 10004KT P6SM -SHRA SCT070 BKN110 OVC150
     FM290430 14005KT P6SM BKN070 OVC120
     FM291200 17008KT P6SM VCSH BKN050 OVC080
     FM291500 19008KT P6SM SCT050 BKN100
     FM291700 19013G20KT P6SM SCT060 BKN150 PROB30 2918/2922 5SM
      TSRA BR BKN050CB=



000
FTUS43 KLOT 290200 AAA
TAFDPA
TAF AMD
KDPA 290258Z 2903/2924 13007KT P6SM SCT070 BKN150
     FM291100 15008KT P6SM VCSH BKN050 OVC080
     FM291500 19008KT P6SM SCT050 BKN100
     FM291700 19013G20KT P6SM SCT060 BKN150 PROB30 2918/2922 5SM
      TSRA BR BKN050CB=



000
FTUS43 KLOT 290200 AAA
TAFMDW
TAF AMD
KMDW 290258Z 2903/2924 10007KT P6SM -SHRA SCT100 OVC150
     FM290400 13007KT P6SM BKN070 OVC120
     FM291100 17008KT P6SM VCSH BKN050 OVC080
     FM291500 19008KT P6SM SCT050 BKN100
     FM291700 19013G20KT P6SM SCT060 BKN150 PROB30 2918/2922 5SM
      TSRA BR BKN050CB=



000
FTUS43 KLOT 290200 AAB
TAFRFD
TAF AMD
KRFD 290258Z 2903/2924 12007KT P6SM SCT080 OVC150
     FM290900 13007KT 6SM BR VCSH BKN050 OVC100
     FM291200 16008KT P6SM SCT020 BKN050
     FM291700 19013G20KT P6SM SCT060 BKN120 PROB30 2918/2922 5SM
      TSRA BR BKN050CB=



000
FTUS43 KLOT 290200 AAA
TAFORD
TAF AMD
KORD 290258Z 2903/3006 13007KT P6SM BKN080 OVC150
     FM291100 17008KT P6SM VCSH BKN050 OVC080
     FM291500 19008KT P6SM SCT050 BKN100
     FM291700 19013G20KT P6SM SCT060 BKN150 PROB30 2918/2922 5SM
      TSRA BR BKN050CB
     FM300000 18012G19KT P6SM BKN050 OVC100=



000
FTUS43 KLOT 290200 AAA
TAFGYY
TAF AMD
KGYY 290258Z 2903/2924 10004KT P6SM -SHRA SCT070 BKN110 OVC150
     FM290430 14005KT P6SM BKN070 OVC120
     FM291200 17008KT P6SM VCSH BKN050 OVC080
     FM291500 19008KT P6SM SCT050 BKN100
     FM291700 19013G20KT P6SM SCT060 BKN150 PROB30 2918/2922 5SM
      TSRA BR BKN050CB=



000
FTUS43 KLOT 282300 CCA
TAFRFD
TAF COR
KRFD 282344Z 2900/2924 10007KT P6SM -RA SCT060 OVC100
     FM290100 12007KT P6SM SCT080 OVC150
     FM290900 15007KT P6SM VCTS BKN050CB OVC100
     FM291200 19008KT P6SM SCT050
     FM291700 20013G20KT P6SM SCT060 BKN100 PROB30 2918/2922 5SM
      TSRA BR BKN050CB=



000
FTUS43 KLOT 282300 AAA
TAFRFD
TAF AMD
KRFD 282343Z 2900/2924 10007KT P6SM -RA SCT040 OVC060
     FM290200 12007KT P6SM OVC050
     FM290900 15007KT P6SM VCTS BKN050CB OVC080
     FM291200 19008KT P6SM SCT050
     FM291700 20013G20KT P6SM SCT060 BKN100 PROB30 2918/2922 5SM
      TSRA BR BKN050CB=



000
FTUS43 KLOT 282300
TAFGYY
TAF
KGYY 282340Z 2900/2924 04010KT P6SM VCSH SCT070 BKN110 OVC150
     FM290300 07007KT P6SM VCSH SCT050 BKN080
     FM290900 15007KT P6SM BKN050 OVC080
     FM291200 17008KT P6SM VCSH BKN050 OVC080
     FM291500 19008KT P6SM SCT050 BKN100
     FM291700 19013G20KT P6SM SCT060 BKN200 PROB30 2918/2922 5SM
      TSRA BR BKN050CB=



000
FTUS43 KLOT 282300
TAFRFD
TAF
KRFD 282340Z 2900/2924 10007KT P6SM -RA SCT040 OVC060
     FM290200 12007KT P6SM OVC050
     FM290900 15007KT P6SM VCTS BKN050CB OVC080 PROB30 2909/2911
      TSRA OVC040CB
     FM291400 19008KT P6SM BKN050
     FM291700 20013G20KT P6SM SCT060 BKN200 PROB30 2918/2922 5SM
      TSRA BR BKN050CB=



000
FTUS43 KLOT 282300
TAFORD
TAF
KORD 282340Z 2900/3006 08008KT P6SM -SHRA SCT080 BKN100 OVC150
     FM290300 13007KT P6SM SCT100 OVC150
     FM290900 15007KT P6SM BKN050 OVC080
     FM291200 17008KT P6SM VCSH BKN050 OVC080
     FM291500 19008KT P6SM SCT050 BKN100
     FM291700 19013G20KT P6SM SCT060 BKN200 PROB30 2918/2922 5SM
      TSRA BR BKN050CB
     FM300000 18012G19KT P6SM BKN050 OVC100=



000
FTUS43 KLOT 282300
TAFGYY
TAF
KGYY 282340Z 2900/2924 04010KT P6SM VCSH SCT070 BKN110 OVC150
     FM290300 07007KT P6SM VCSH SCT050 BKN080
     FM290900 15007KT P6SM BKN050 OVC080
     FM291200 17008KT P6SM VCSH BKN050 OVC080
     FM291500 19008KT P6SM SCT050 BKN100
     FM291700 19013G20KT P6SM SCT060 BKN200 PROB30 2918/2922 5SM
      TSRA BR BKN050CB=



000
FTUS43 KLOT 282300
TAFMDW
TAF
KMDW 282340Z 2900/2924 08008KT P6SM -SHRA SCT060 BKN080 OVC150
     FM290300 13007KT P6SM SCT100 OVC150
     FM290900 15007KT P6SM BKN050 OVC080
     FM291200 17008KT P6SM VCSH BKN050 OVC080
     FM291500 19008KT P6SM SCT050 BKN100
     FM291700 19013G20KT P6SM SCT060 BKN200 PROB30 2918/2922 5SM
      TSRA BR BKN050CB=



000
FTUS43 KLOT 282300
TAFDPA
TAF
KDPA 282340Z 2900/2924 08008KT P6SM -SHRA SCT060 BKN080 OVC150
     FM290300 10007KT P6SM SCT070 BKN150
     FM290900 14007KT P6SM BKN050 OVC080
     FM291200 15008KT P6SM VCSH BKN050 OVC080
     FM291500 19008KT P6SM SCT050 BKN100
     FM291700 19013G20KT P6SM VCTS SCT060CB BKN200 PROB30 2918/2922
      5SM TSRA BR BKN050CB=



000
FTUS43 KLOT 282200 AAB
TAFORD
TAF AMD
KORD 282202Z 2822/2924 07010KT P6SM SCT080 BKN200
     FM290000 09008KT P6SM -SHRA SCT050 BKN070 OVC150
     FM290300 13007KT P6SM SCT050 BKN080
     FM290900 16007KT P6SM SHRA OVC050 PROB30 2910/2913 TSRA
      OVC040CB
     FM291400 19008KT P6SM BKN050
     FM291700 20013G20KT P6SM SCT060 BKN200 PROB30 2920/2924 5SM
      TSRA BR BKN050CB=



000
FTUS43 KLOT 282200 AAB
TAFGYY
TAF AMD
KGYY 282202Z 2822/2918 04008KT P6SM SCT200
     FM290030 09008KT P6SM VCSH SCT050 BKN070 OVC150
     FM290330 13007KT P6SM VCSH SCT050 BKN080
     FM290900 16007KT P6SM SHRA OVC050 PROB30 2910/2913 TSRA
      OVC040CB
     FM291400 19008KT P6SM BKN050
     FM291700 19013G20KT P6SM SCT060 BKN200=



000
FTUS43 KLOT 282200 AAB
TAFMDW
TAF AMD
KMDW 282202Z 2822/2918 07010KT P6SM SCT080 BKN200
     FM290000 09008KT P6SM -SHRA SCT050 BKN070 OVC150
     FM290300 13007KT P6SM SCT050 BKN080
     FM290900 16007KT P6SM SHRA OVC050 PROB30 2910/2913 TSRA
      OVC040CB
     FM291400 19008KT P6SM BKN050
     FM291700 20013G20KT P6SM SCT060 BKN200=



000
FTUS43 KLOT 282200 AAB
TAFDPA
TAF AMD
KDPA 282202Z 2822/2918 07010KT P6SM SCT080 BKN200
     FM290000 09008KT P6SM -SHRA SCT050 BKN070 OVC150
     FM290400 13007KT P6SM SCT050 BKN080
     FM290900 16007KT P6SM SHRA OVC050 PROB30 2910/2913 TSRA
      OVC040CB
     FM291400 19008KT P6SM BKN050
     FM291700 20013G20KT P6SM SCT060 BKN200=



000
FTUS43 KLOT 282200 AAB
TAFRFD
TAF AMD
KRFD 282202Z 2822/2918 10007KT P6SM -RA BKN080 OVC140
     FM282300 13007KT P6SM -RA SCT040 OVC060
     FM290300 15007KT P6SM OVC050 PROB30 2908/2911 TSRA OVC040CB
     FM291400 19008KT P6SM BKN050
     FM291700 20013G20KT P6SM SCT060 BKN200=



000
FTUS43 KLOT 282200 AAB
TAFGYY
TAF AMD
KGYY 282202Z 2822/2918 04008KT P6SM SCT200
     FM290030 09008KT P6SM VCSH SCT050 BKN070 OVC150
     FM290330 13007KT P6SM VCSH SCT050 BKN080
     FM290900 16007KT P6SM SHRA OVC050 PROB30 2910/2913 TSRA
      OVC040CB
     FM291400 19008KT P6SM BKN050
     FM291700 19013G20KT P6SM SCT060 BKN200=



000
FTUS43 KLOT 281900 AAA
TAFGYY
TAF AMD
KGYY 281943Z 2820/2918 04010KT P6SM SCT200
     FM282300 09010KT P6SM SCT080 BKN200
     FM290500 13007KT P6SM VCSH SCT050 BKN080
     FM290900 16007KT P6SM SHRA OVC050 PROB30 2910/2913 TSRA
      OVC040CB
     FM291400 19008KT P6SM BKN050
     FM291700 19013G20KT P6SM SCT060 BKN200=



000
FTUS43 KLOT 281900 AAA
TAFMDW
TAF AMD
KMDW 281943Z 2820/2918 07010KT P6SM SCT200
     FM282200 09010KT P6SM SCT080 BKN200
     FM290400 13007KT P6SM VCSH SCT050 BKN080
     FM290900 16007KT P6SM SHRA OVC050 PROB30 2910/2913 TSRA
      OVC040CB
     FM291400 19008KT P6SM BKN050
     FM291700 20013G20KT P6SM SCT060 BKN200=



000
FTUS43 KLOT 281900 AAA
TAFGYY
TAF AMD
KGYY 281943Z 2820/2918 04010KT P6SM SCT200
     FM282300 09010KT P6SM SCT080 BKN200
     FM290500 13007KT P6SM VCSH SCT050 BKN080
     FM290900 16007KT P6SM SHRA OVC050 PROB30 2910/2913 TSRA
      OVC040CB
     FM291400 19008KT P6SM BKN050
     FM291700 19013G20KT P6SM SCT060 BKN200=



000
FTUS43 KLOT 281900 AAA
TAFORD
TAF AMD
KORD 281943Z 2820/2924 06010KT P6SM SCT200
     FM282200 09010KT P6SM SCT080 BKN200
     FM290400 13007KT P6SM VCSH SCT050 BKN080
     FM290900 16007KT P6SM SHRA OVC050 PROB30 2910/2913 TSRA
      OVC040CB
     FM291400 19008KT P6SM BKN050
     FM291700 20013G20KT P6SM SCT060 BKN200 PROB30 2920/2924 5SM
      TSRA BR BKN050CB=



000
FTUS43 KLOT 281900 AAA
TAFRFD
TAF AMD
KRFD 281943Z 2820/2918 09010KT P6SM SCT200
     FM282200 09010KT P6SM SCT080 BKN200
     FM290100 13007KT P6SM VCSH SCT050 BKN080
     FM290500 16007KT P6SM SHRA OVC050 PROB30 2908/2911 TSRA
      OVC040CB
     FM291400 19008KT P6SM BKN050
     FM291700 20013G20KT P6SM SCT060 BKN200=



000
FTUS43 KLOT 281900 AAA
TAFDPA
TAF AMD
KDPA 281943Z 2820/2918 12010KT P6SM SCT200
     FM282200 11010KT P6SM SCT080 BKN200
     FM290400 13007KT P6SM VCSH SCT050 BKN080
     FM290900 16007KT P6SM SHRA OVC050 PROB30 2910/2913 TSRA
      OVC040CB
     FM291400 19008KT P6SM BKN050
     FM291700 20013G20KT P6SM SCT060 BKN200=



000
FTUS43 KLOT 281700 RRA
TAFGYY
TAF
KGYY 281742Z 2818/2918 04009KT P6SM SCT200
     FM282300 09010KT P6SM SCT080 BKN200
     FM290500 13007KT P6SM VCSH SCT050 BKN080
     FM290900 16007KT P6SM SHRA OVC050 PROB30 2910/2913 TSRA
      OVC040CB
     FM291400 19008KT P6SM BKN050
     FM291700 19013G20KT P6SM SCT060 BKN200=



000
FTUS43 KLOT 281700 RRA
TAFORD
TAF
KORD 281742Z 2818/2924 09006KT P6SM SCT200
     FM282200 09010KT P6SM SCT080 BKN200
     FM290400 13007KT P6SM VCSH SCT050 BKN080
     FM290900 16007KT P6SM SHRA OVC050 PROB30 2910/2913 TSRA
      OVC040CB
     FM291400 19008KT P6SM BKN050
     FM291700 20013G20KT P6SM SCT060 BKN200 PROB30 2920/2924 5SM
      TSRA BR BKN050CB=



000
FTUS43 KLOT 281700 RRA
TAFRFD
TAF
KRFD 281742Z 2818/2918 09010KT P6SM SCT200
     FM282200 09010KT P6SM SCT080 BKN200
     FM290100 13007KT P6SM VCSH SCT050 BKN080
     FM290500 16007KT P6SM SHRA OVC050 PROB30 2908/2911 TSRA
      OVC040CB
     FM291400 19008KT P6SM BKN050
     FM291700 20013G20KT P6SM SCT060 BKN200=



000
FTUS43 KLOT 281700 RRA
TAFDPA
TAF
KDPA 281742Z 2818/2918 09010KT P6SM SCT200
     FM282200 09010KT P6SM SCT080 BKN200
     FM290400 13007KT P6SM VCSH SCT050 BKN080
     FM290900 16007KT P6SM SHRA OVC050 PROB30 2910/2913 TSRA
      OVC040CB
     FM291400 19008KT P6SM BKN050
     FM291700 20013G20KT P6SM SCT060 BKN200=



000
FTUS43 KLOT 281700 RRA
TAFMDW
TAF
KMDW 281742Z 2818/2918 09008KT P6SM SCT200
     FM282200 09010KT P6SM SCT080 BKN200
     FM290400 13007KT P6SM VCSH SCT050 BKN080
     FM290900 16007KT P6SM SHRA OVC050 PROB30 2910/2913 TSRA
      OVC040CB
     FM291400 19008KT P6SM BKN050
     FM291700 20013G20KT P6SM SCT060 BKN200=



000
FTUS43 KLOT 281700 RRA
TAFGYY
TAF
KGYY 281742Z 2818/2918 04009KT P6SM SCT200
     FM282300 09010KT P6SM SCT080 BKN200
     FM290500 13007KT P6SM VCSH SCT050 BKN080
     FM290900 16007KT P6SM SHRA OVC050 PROB30 2910/2913 TSRA
      OVC040CB
     FM291400 19008KT P6SM BKN050
     FM291700 19013G20KT P6SM SCT060 BKN200=



000
FTUS43 KLOT 281500 AAB
TAFGYY
TAF AMD
KGYY 281555Z 2816/2912 06007KT P6SM FEW060 BKN150
     FM290100 09008KT P6SM BKN050 PROB30 2903/2909 SHRA
     FM290900 14007KT P6SM VCSH OVC050=



000
FTUS43 KLOT 281500 AAB
TAFGYY
TAF AMD
KGYY 281555Z 2816/2912 06007KT P6SM FEW060 BKN150
     FM290100 09008KT P6SM BKN050 PROB30 2903/2909 SHRA
     FM290900 14007KT P6SM VCSH OVC050=



000
FTUS43 KLOT 281500 AAB
TAFMDW
TAF AMD
KMDW 281555Z 2816/2912 08010KT P6SM SCT080
     FM281800 09010KT P6SM SCT060 BKN150
     FM290100 10008KT P6SM BKN050 PROB30 2903/2909 SHRA
     FM290900 16007KT P6SM VCSH OVC050=



000
FTUS43 KLOT 281500 AAB
TAFORD
TAF AMD
KORD 281555Z 2816/2918 08010KT P6SM SCT080
     FM281800 09010KT P6SM SCT060 BKN150
     FM290100 10008KT P6SM BKN050 PROB30 2903/2909 SHRA
     FM290900 16007KT P6SM VCSH OVC050
     FM291400 19011KT P6SM SCT050 BKN150=



000
FTUS43 KLOT 281500 AAB
TAFDPA
TAF AMD
KDPA 281555Z 2816/2912 08008KT P6SM SCT070
     FM281800 09010KT P6SM SCT060 BKN150
     FM290100 11007KT P6SM BKN050 PROB30 2902/2908 SHRA
     FM290800 15006KT P6SM VCSH OVC050=



000
FTUS43 KLOT 281500 AAB
TAFRFD
TAF AMD
KRFD 281555Z 2816/2912 12008KT P6SM SCT030 BKN120
     FM281800 12010KT P6SM VCSH BKN050 OVC080
      TEMPO 2821/2901 SHRA OVC050
     FM290100 12007KT P6SM VCSH OVC050=



000
FTUS43 KLOT 281400 AAA
TAFGYY
TAF AMD
KGYY 281406Z 2814/2912 06007KT P6SM FEW060 BKN150
     FM290100 09008KT P6SM BKN050 PROB30 2903/2909 SHRA
     FM290900 14007KT P6SM VCSH OVC050=



000
FTUS43 KLOT 281400 AAA
TAFORD
TAF AMD
KORD 281406Z 2814/2918 08010KT P6SM SCT080
     FM281800 09010KT P6SM SCT060 BKN150
     FM290100 10008KT P6SM BKN050 PROB30 2903/2909 SHRA
     FM290900 16007KT P6SM VCSH OVC050
     FM291400 19011KT P6SM SCT050 BKN150=



000
FTUS43 KLOT 281400 AAA
TAFGYY
TAF AMD
KGYY 281406Z 2814/2912 06007KT P6SM FEW060 BKN150
     FM290100 09008KT P6SM BKN050 PROB30 2903/2909 SHRA
     FM290900 14007KT P6SM VCSH OVC050=



000
FTUS43 KLOT 281400 AAA
TAFMDW
TAF AMD
KMDW 281406Z 2814/2912 08010KT P6SM SCT080
     FM281800 09010KT P6SM SCT060 BKN150
     FM290100 10008KT P6SM BKN050 PROB30 2903/2909 SHRA
     FM290900 16007KT P6SM VCSH OVC050=



000
FTUS43 KLOT 281400 AAA
TAFRFD
TAF AMD
KRFD 281406Z 2814/2912 12008KT P6SM SCT030 BKN120
     FM281800 12010KT P6SM VCSH BKN050 OVC080
      TEMPO 2821/2901 SHRA OVC050
     FM290100 12007KT P6SM VCSH OVC050=



000
FTUS43 KLOT 281400 AAA
TAFDPA
TAF AMD
KDPA 281406Z 2814/2912 08008KT P6SM SCT070
     FM281800 09010KT P6SM SCT060 BKN150
     FM290100 11007KT P6SM BKN050 PROB30 2902/2908 SHRA
     FM290800 15006KT P6SM VCSH OVC050=



000
FTUS43 KLOT 281100
TAFGYY
TAF
KGYY 281130Z 2812/2912 06010KT P6SM SCT070 BKN250
     FM281600 04011KT P6SM FEW060 BKN150
     FM290100 09008KT P6SM BKN050 PROB30 2903/2909 SHRA
     FM290900 14007KT P6SM VCSH OVC050=



000
FTUS43 KLOT 281100
TAFGYY
TAF
KGYY 281130Z 2812/2912 06010KT P6SM SCT070 BKN250
     FM281600 04011KT P6SM FEW060 BKN150
     FM290100 09008KT P6SM BKN050 PROB30 2903/2909 SHRA
     FM290900 14007KT P6SM VCSH OVC050=



000
FTUS43 KLOT 281100
TAFORD
TAF
KORD 281130Z 2812/2918 08010KT P6SM BKN070
     FM281800 09010KT P6SM SCT060 BKN150
     FM290100 10008KT P6SM BKN050 PROB30 2903/2909 SHRA
     FM290900 16007KT P6SM VCSH OVC050
     FM291400 19011KT P6SM SCT050 BKN150=



000
FTUS43 KLOT 281100
TAFMDW
TAF
KMDW 281130Z 2812/2912 08010KT P6SM BKN070
     FM281800 09010KT P6SM SCT060 BKN150
     FM290100 10008KT P6SM BKN050 PROB30 2903/2909 SHRA
     FM290900 16007KT P6SM VCSH OVC050=



000
FTUS43 KLOT 281100
TAFRFD
TAF
KRFD 281130Z 2812/2912 09008KT P6SM FEW030 BKN070
     FM281400 11008KT P6SM SCT030 BKN120
     FM281800 12010KT P6SM VCSH BKN050 OVC080
      TEMPO 2821/2901 SHRA OVC050
     FM290100 12007KT P6SM VCSH OVC050=



000
FTUS43 KLOT 281100
TAFDPA
TAF
KDPA 281130Z 2812/2912 08008KT P6SM BKN070
     FM281800 09010KT P6SM SCT060 BKN150
     FM290100 11007KT P6SM BKN050 PROB30 2902/2908 SHRA
     FM290800 15006KT P6SM VCSH OVC050=



000
FTUS43 KLOT 280900 AAA
TAFORD
TAF AMD
KORD 280900Z 2809/2912 06007KT P6SM BKN070
     FM281400 09008KT P6SM SCT100 BKN150
     FM281900 09010KT P6SM SCT060 OVC150
     FM290100 10008KT P6SM OVC050 PROB30 2903/2909 SHRA
     FM290900 16007KT P6SM BKN050=



000
FTUS43 KLOT 280900 AAA
TAFDPA
TAF AMD
KDPA 280900Z 2809/2906 04006KT P6SM BKN070
     FM281400 08007KT P6SM SCT100 BKN150
     FM281900 09010KT P6SM SCT060 OVC150
     FM290100 11007KT P6SM OVC050 PROB30 2902/2906 SHRA=



000
FTUS43 KLOT 280900 AAA
TAFGYY
TAF AMD
KGYY 280900Z 2809/2906 06007KT P6SM SCT100 BKN250
     FM281400 07008KT P6SM SCT100 BKN150
     FM281900 04010KT P6SM SCT060 OVC150
     FM290100 10007KT P6SM OVC050 PROB30 2903/2906 SHRA=



000
FTUS43 KLOT 280900 AAA
TAFMDW
TAF AMD
KMDW 280900Z 2809/2906 06007KT P6SM SCT070 BKN250
     FM281400 09008KT P6SM SCT100 BKN150
     FM281900 09010KT P6SM SCT060 OVC150
     FM290100 10008KT P6SM OVC050 PROB30 2903/2906 SHRA=



000
FTUS43 KLOT 280900 AAA
TAFGYY
TAF AMD
KGYY 280900Z 2809/2906 06007KT P6SM SCT100 BKN250
     FM281400 07008KT P6SM SCT100 BKN150
     FM281900 04010KT P6SM SCT060 OVC150
     FM290100 10007KT P6SM OVC050 PROB30 2903/2906 SHRA=



000
FTUS43 KLOT 280900 AAA
TAFRFD
TAF AMD
KRFD 280900Z 2809/2906 07005KT P6SM SCT070 BKN250
     FM281400 11008KT P6SM SCT060 BKN120
     FM281800 12010KT P6SM VCSH BKN050 OVC080
      TEMPO 2821/2824 SHRA OVC050
     FM290300 13007KT P6SM VCSH OVC050=



000
FTUS43 KLOT 280500
TAFGYY
TAF
KGYY 280520Z 2806/2906 06005KT P6SM FEW070 BKN250
     FM281400 07008KT P6SM SCT100 BKN150
     FM281900 04010KT P6SM SCT060 OVC150
     FM290100 10007KT P6SM OVC050 PROB30 2903/2906 SHRA=



000
FTUS43 KLOT 280500
TAFMDW
TAF
KMDW 280520Z 2806/2906 06006KT P6SM FEW070 BKN250
     FM281400 09008KT P6SM SCT100 BKN150
     FM281900 09010KT P6SM SCT060 OVC150
     FM290100 10008KT P6SM OVC050 PROB30 2903/2906 SHRA=



000
FTUS43 KLOT 280500
TAFRFD
TAF
KRFD 280520Z 2806/2906 07005KT P6SM SCT070 BKN250
     FM281400 11008KT P6SM SCT060 BKN120
     FM281800 12010KT P6SM VCSH BKN050 OVC080
      TEMPO 2821/2824 SHRA OVC050
     FM290300 13007KT P6SM VCSH OVC050=



000
FTUS43 KLOT 280500
TAFORD
TAF
KORD 280520Z 2806/2912 06006KT P6SM FEW070 BKN250
     FM281400 09008KT P6SM SCT100 BKN150
     FM281900 09010KT P6SM SCT060 OVC150
     FM290100 10008KT P6SM OVC050 PROB30 2903/2909 SHRA
     FM290900 16007KT P6SM BKN050=



000
FTUS43 KLOT 280500
TAFDPA
TAF
KDPA 280520Z 2806/2906 04004KT P6SM FEW070 BKN250
     FM281400 08007KT P6SM SCT100 BKN150
     FM281900 09010KT P6SM SCT060 OVC150
     FM290100 11007KT P6SM OVC050 PROB30 2902/2906 SHRA=



000
FTUS43 KLOT 280300 AAA
TAFORD
TAF AMD
KORD 280300Z 2803/2906 06006KT P6SM FEW120 BKN250
     FM281400 09008KT P6SM SCT100 BKN150
     FM281900 09010KT P6SM SCT060 OVC150
     FM290000 10011KT P6SM VCSH OVC050
      TEMPO 2903/2906 -SHRA=



000
FTUS43 KLOT 280300 AAA
TAFGYY
TAF AMD
KGYY 280300Z 2803/2824 06006KT P6SM FEW120 BKN250
     FM281400 09008KT P6SM SCT100 BKN150
     FM281900 06010KT P6SM SCT060 OVC150=



000
FTUS43 KLOT 280300 AAA
TAFRFD
TAF AMD
KRFD 280300Z 2803/2824 07004KT P6SM SCT100 BKN250
     FM281500 12008KT P6SM SCT060 BKN120
     FM281800 12010KT P6SM VCSH BKN050 OVC080
      TEMPO 2821/2824 -SHRA OVC050=



000
FTUS43 KLOT 280300 AAA
TAFGYY
TAF AMD
KGYY 280300Z 2803/2824 06006KT P6SM FEW120 BKN250
     FM281400 09008KT P6SM SCT100 BKN150
     FM281900 06010KT P6SM SCT060 OVC150=



000
FTUS43 KLOT 280300 AAA
TAFMDW
TAF AMD
KMDW 280300Z 2803/2824 06006KT P6SM FEW120 BKN250
     FM281400 09008KT P6SM SCT100 BKN150
     FM281900 09010KT P6SM SCT060 OVC150=



000
FTUS43 KLOT 280300 AAA
TAFDPA
TAF AMD
KDPA 280300Z 2803/2824 05003KT P6SM FEW100 SCT250
     FM281500 09008KT P6SM SCT100 BKN150
     FM282000 09010KT P6SM SCT060 OVC150=



000
FTUS43 KLOT 272300
TAFGYY
TAF
KGYY 272339Z 2800/2824 05010KT P6SM BKN150
     FM280130 06006KT P6SM FEW120 BKN250
     FM281400 09008KT P6SM SCT070 BKN150
     FM281900 06010KT P6SM BKN060 OVC150=



000
FTUS43 KLOT 272300
TAFGYY
TAF
KGYY 272339Z 2800/2824 05010KT P6SM BKN150
     FM280130 06006KT P6SM FEW120 BKN250
     FM281400 09008KT P6SM SCT070 BKN150
     FM281900 06010KT P6SM BKN060 OVC150=



000
FTUS43 KLOT 272300
TAFMDW
TAF
KMDW 272339Z 2800/2824 07010KT P6SM FEW150 BKN250
     FM280130 06006KT P6SM FEW120 BKN250
     FM281400 09008KT P6SM SCT070 BKN150
     FM281900 09010KT P6SM BKN060 OVC150=



000
FTUS43 KLOT 272300
TAFDPA
TAF
KDPA 272339Z 2800/2824 07009KT P6SM SCT080 BKN250
     FM280130 05006KT P6SM FEW100 SCT250
     FM281400 09008KT P6SM SCT080 BKN150
     FM281900 09010KT P6SM BKN060 OVC150=



000
FTUS43 KLOT 272300
TAFORD
TAF
KORD 272339Z 2800/2906 06010KT P6SM FEW150 BKN250
     FM280130 06006KT P6SM FEW120 BKN250
     FM281400 09008KT P6SM SCT070 BKN150
     FM281900 09010KT P6SM BKN060 OVC150
     FM290000 10011KT P6SM VCSH OVC050
      TEMPO 2903/2906 -SHRA=



000
FTUS43 KLOT 272300
TAFRFD
TAF
KRFD 272339Z 2800/2824 07004KT P6SM FEW120 SCT250
     FM281500 12008KT P6SM SCT060 BKN120
     FM281800 12010KT P6SM VCSH BKN040 OVC080
      TEMPO 2821/2824 -SHRA OVC040=



000
FTUS43 KLOT 272200 AAB
TAFGYY
TAF AMD
KGYY 272206Z 2722/2818 04011KT P6SM BKN250
     FM280100 06006KT P6SM FEW080 SCT250
     FM281300 10007KT P6SM BKN080=



000
FTUS43 KLOT 272200 AAB
TAFDPA
TAF AMD
KDPA 272206Z 2722/2818 07008KT P6SM BKN250
     FM280100 05004KT P6SM FEW080 SCT250
     FM281200 10008KT P6SM BKN060=



000
FTUS43 KLOT 272200 AAB
TAFRFD
TAF AMD
KRFD 272206Z 2722/2818 35005KT P6SM BKN250
     FM280100 06004KT P6SM FEW080 SCT250
     FM281500 12008KT P6SM BKN060 PROB30 2816/2818 3SM TSRA
      BKN070CB=



000
FTUS43 KLOT 272200 AAC
TAFORD
TAF AMD
KORD 272206Z 2722/2824 05010KT P6SM SCT080 BKN250
     FM280100 05006KT P6SM FEW080 SCT250
     FM281200 09008KT P6SM BKN060=



000
FTUS43 KLOT 272200 AAC
TAFMDW
TAF AMD
KMDW 272206Z 2722/2818 05010KT P6SM SCT080 BKN250
     FM280100 05006KT P6SM FEW080 SCT250
     FM281200 09008KT P6SM BKN060=



000
FTUS43 KLOT 272200 AAB
TAFGYY
TAF AMD
KGYY 272206Z 2722/2818 04011KT P6SM BKN250
     FM280100 06006KT P6SM FEW080 SCT250
     FM281300 10007KT P6SM BKN080=



000
FTUS43 KLOT 271900 AAA
TAFGYY
TAF AMD
KGYY 271951Z 2720/2818 04011KT P6SM BKN250
     FM280100 06006KT P6SM FEW080 SCT250
     FM281300 10007KT P6SM BKN080=



000
FTUS43 KLOT 271900 AAB
TAFORD
TAF AMD
KORD 271951Z 2720/2824 05010KT P6SM SCT080 BKN250
     FM280100 05006KT P6SM FEW080 SCT250
     FM281200 09008KT P6SM BKN060=



000
FTUS43 KLOT 271900 AAB
TAFMDW
TAF AMD
KMDW 271951Z 2720/2818 05010KT P6SM SCT080 BKN250
     FM280100 05006KT P6SM FEW080 SCT250
     FM281200 09008KT P6SM BKN060=



000
FTUS43 KLOT 271900 AAA
TAFDPA
TAF AMD
KDPA 271951Z 2720/2818 07008KT P6SM BKN250
     FM280100 05004KT P6SM FEW080 SCT250
     FM281200 10008KT P6SM BKN060=



000
FTUS43 KLOT 271900 AAA
TAFGYY
TAF AMD
KGYY 271951Z 2720/2818 04011KT P6SM BKN250
     FM280100 06006KT P6SM FEW080 SCT250
     FM281300 10007KT P6SM BKN080=



000
FTUS43 KLOT 271900 AAA
TAFRFD
TAF AMD
KRFD 271951Z 2720/2818 35005KT P6SM BKN250
     FM280100 06004KT P6SM FEW080 SCT250
     FM281500 12008KT P6SM BKN060 PROB30 2816/2818 2SM TSRA
      BKN070CB=



000
FTUS43 KLOT 271800 AAA
TAFMDW
TAF AMD
KMDW 271845Z 2719/2818 06010KT P6SM SCT080 BKN250
     FM280100 05006KT P6SM FEW080 SCT250
     FM281200 09008KT P6SM BKN060=



000
FTUS43 KLOT 271800 AAA
TAFORD
TAF AMD
KORD 271845Z 2719/2824 05010KT P6SM SCT080 BKN250
     FM280100 05006KT P6SM FEW080 SCT250
     FM281200 09008KT P6SM BKN060=



000
FTUS43 KLOT 271700
TAFMDW
TAF
KMDW 271727Z 2718/2818 07008KT P6SM BKN250
     FM272100 07010KT P6SM SCT080 BKN250
     FM280100 05006KT P6SM FEW080 SCT250
     FM281200 09008KT P6SM BKN060=



000
FTUS43 KLOT 271700
TAFDPA
TAF
KDPA 271727Z 2718/2818 07008KT P6SM SCT080 BKN250
     FM280100 05004KT P6SM FEW080 SCT250
     FM281200 10008KT P6SM BKN060=



000
FTUS43 KLOT 271700
TAFRFD
TAF
KRFD 271727Z 2718/2818 09009KT P6SM BKN250
     FM280100 08004KT P6SM FEW080 SCT250
     FM281500 12008KT P6SM BKN060 PROB30 2816/2818 2SM TSRA
      BKN070CB=



000
FTUS43 KLOT 271700
TAFGYY
TAF
KGYY 271727Z 2718/2818 04010KT P6SM BKN250
     FM280100 06006KT P6SM FEW080 SCT250
     FM281300 10007KT P6SM BKN080=



000
FTUS43 KLOT 271700
TAFGYY
TAF
KGYY 271727Z 2718/2818 04010KT P6SM BKN250
     FM280100 06006KT P6SM FEW080 SCT250
     FM281300 10007KT P6SM BKN080=



000
FTUS43 KLOT 271700
TAFORD
TAF
KORD 271727Z 2718/2824 09008KT P6SM BKN250
     FM272100 07010KT P6SM SCT080 BKN250
     FM280100 05006KT P6SM FEW080 SCT250
     FM281200 09008KT P6SM BKN060=



000
FTUS43 KLOT 271600 AAB
TAFORD
TAF AMD
KORD 271600Z 2716/2818 07008KT P6SM BKN150
     FM271900 07010KT P6SM SCT080 BKN250
     FM280100 05006KT P6SM FEW080 SCT250
     FM281200 09008KT P6SM BKN060=



000
FTUS43 KLOT 271600 AAB
TAFDPA
TAF AMD
KDPA 271600Z 2716/2812 07007KT P6SM BKN150
     FM272100 07008KT P6SM SCT080 BKN250
     FM280100 05004KT P6SM FEW080 SCT250=



000
FTUS43 KLOT 271600 AAB
TAFGYY
TAF AMD
KGYY 271600Z 2716/2812 04008KT P6SM BKN150
     FM271700 02010KT P6SM BKN080
     FM280100 05006KT P6SM FEW080 SCT250=



000
FTUS43 KLOT 271600 AAB
TAFRFD
TAF AMD
KRFD 271600Z 2716/2812 08009KT P6SM BKN250
     FM280100 08004KT P6SM FEW080 SCT250=



000
FTUS43 KLOT 271600 AAB
TAFMDW
TAF AMD
KMDW 271600Z 2716/2812 07008KT P6SM BKN150
     FM271900 07010KT P6SM SCT080 BKN250
     FM280100 05006KT P6SM FEW080 SCT250=



000
FTUS43 KLOT 271600 AAB
TAFGYY
TAF AMD
KGYY 271600Z 2716/2812 04008KT P6SM BKN150
     FM271700 02010KT P6SM BKN080
     FM280100 05006KT P6SM FEW080 SCT250=



000
FTUS43 KLOT 271400 AAA
TAFGYY
TAF AMD
KGYY 271400Z 2714/2812 03006KT P6SM BKN100
     FM271700 02010KT P6SM BKN080
     FM280100 05006KT P6SM FEW080 SCT250=



000
FTUS43 KLOT 271400 AAA
TAFORD
TAF AMD
KORD 271400Z 2714/2818 07008KT P6SM BKN100
     FM271900 07010KT P6SM SCT080 BKN250
     FM280100 05006KT P6SM FEW080 SCT250
     FM281200 09008KT P6SM BKN060=



000
FTUS43 KLOT 271400 AAA
TAFDPA
TAF AMD
KDPA 271400Z 2714/2812 07007KT P6SM BKN100
     FM272100 07008KT P6SM SCT080 BKN250
     FM280100 05004KT P6SM FEW080 SCT250=



000
FTUS43 KLOT 271400 AAA
TAFMDW
TAF AMD
KMDW 271400Z 2714/2812 07008KT P6SM BKN100
     FM271900 07010KT P6SM SCT080 BKN250
     FM280100 05006KT P6SM FEW080 SCT250=



000
FTUS43 KLOT 271400 AAA
TAFGYY
TAF AMD
KGYY 271400Z 2714/2812 03006KT P6SM BKN100
     FM271700 02010KT P6SM BKN080
     FM280100 05006KT P6SM FEW080 SCT250=



000
FTUS43 KLOT 271400 AAA
TAFRFD
TAF AMD
KRFD 271400Z 2714/2812 04008KT P6SM BKN100
     FM271500 06009KT P6SM BKN080
     FM280100 08004KT P6SM FEW080 SCT250=



000
FTUS43 KLOT 271100
TAFMDW
TAF
KMDW 271120Z 2712/2812 03006KT P6SM SCT035 BKN100
     FM271500 04008KT P6SM BKN080
     FM271900 06010KT P6SM SCT080 BKN250
     FM280100 05006KT P6SM FEW080 SCT250=



000
FTUS43 KLOT 271100
TAFRFD
TAF
KRFD 271120Z 2712/2812 03006KT P6SM FEW035 BKN100
     FM271500 07007KT P6SM BKN080
     FM280100 08004KT P6SM FEW080 SCT250=



000
FTUS43 KLOT 271100
TAFORD
TAF
KORD 271120Z 2712/2818 02006KT P6SM SCT035 BKN100
     FM271500 04008KT P6SM BKN080
     FM271900 06010KT P6SM SCT080 BKN250
     FM280100 05006KT P6SM FEW080 SCT250
     FM281200 09008KT P6SM BKN060=



000
FTUS43 KLOT 271100
TAFGYY
TAF
KGYY 271120Z 2712/2812 03006KT P6SM BKN035
     FM271600 02010KT P6SM BKN080
     FM280100 05006KT P6SM FEW080 SCT250=



000
FTUS43 KLOT 271100
TAFDPA
TAF
KDPA 271120Z 2712/2812 02006KT P6SM SCT035 BKN100
     FM271500 04008KT P6SM BKN080
     FM272100 06008KT P6SM SCT080 BKN250
     FM280100 05004KT P6SM FEW080 SCT250=



000
FTUS43 KLOT 271100
TAFGYY
TAF
KGYY 271120Z 2712/2812 03006KT P6SM BKN035
     FM271600 02010KT P6SM BKN080
     FM280100 05006KT P6SM FEW080 SCT250=



000
FTUS43 KLOT 270900 AAA
TAFRFD
TAF AMD
KRFD 270900Z 2709/2806 03005KT P6SM BKN035
     FM271500 07007KT P6SM BKN080
     FM280100 08004KT P6SM SCT080=



000
FTUS43 KLOT 270900 AAA
TAFDPA
TAF AMD
KDPA 270900Z 2709/2806 01005KT P6SM BKN035
     FM271500 04008KT P6SM BKN080
     FM271900 06010KT P6SM BKN080
     FM280100 05006KT P6SM SCT080=



000
FTUS43 KLOT 270900 AAA
TAFGYY
TAF AMD
KGYY 270900Z 2709/2806 03005KT P6SM BKN035
     FM271600 02010KT P6SM BKN080
     FM280100 05006KT P6SM SCT080=



000
FTUS43 KLOT 270900 AAA
TAFGYY
TAF AMD
KGYY 270900Z 2709/2806 03005KT P6SM BKN035
     FM271600 02010KT P6SM BKN080
     FM280100 05006KT P6SM SCT080=



000
FTUS43 KLOT 270900 AAA
TAFMDW
TAF AMD
KMDW 270900Z 2709/2806 03005KT P6SM BKN035
     FM271500 04008KT P6SM BKN080
     FM271900 06010KT P6SM BKN080
     FM280100 05006KT P6SM SCT080=



000
FTUS43 KLOT 270900 AAA
TAFORD
TAF AMD
KORD 270900Z 2709/2812 03005KT P6SM BKN035
     FM271500 04008KT P6SM BKN080
     FM271900 06010KT P6SM BKN080
     FM280100 05006KT P6SM SCT080=



000
FTUS43 KLOT 270500
TAFMDW
TAF
KMDW 270525Z 2706/2806 03005KT P6SM SCT030 BKN100
     FM271500 04008KT P6SM BKN080
     FM271900 06010KT P6SM BKN080
     FM280100 05006KT P6SM SCT080=



000
FTUS43 KLOT 270500
TAFORD
TAF
KORD 270525Z 2706/2812 03005KT P6SM SCT030 BKN100
     FM271500 04008KT P6SM BKN080
     FM271900 06010KT P6SM BKN080
     FM280100 05006KT P6SM SCT080=



000
FTUS43 KLOT 270500
TAFRFD
TAF
KRFD 270525Z 2706/2806 02004KT P6SM FEW030 BKN100
     FM271500 07007KT P6SM BKN080
     FM280100 08004KT P6SM SCT080=



000
FTUS43 KLOT 270500
TAFGYY
TAF
KGYY 270525Z 2706/2806 03005KT 6SM BR FEW006 SCT030
      TEMPO 2708/2712 3SM BR BKN006
     FM271600 02010KT P6SM BKN080
     FM280100 05006KT P6SM SCT080=



000
FTUS43 KLOT 270500
TAFDPA
TAF
KDPA 270525Z 2706/2806 01005KT P6SM SCT030 BKN100
     FM271500 04008KT P6SM BKN080
     FM271900 06010KT P6SM BKN080
     FM280100 05006KT P6SM SCT080=



000
FTUS43 KLOT 270200 AAA
TAFGYY
TAF AMD
KGYY 270248Z 2703/2724 03004KT 6SM BR SCT150
      TEMPO 2707/2711 3SM BR
     FM271700 03010KT P6SM BKN080=



000
FTUS43 KLOT 270200 AAA
TAFMDW
TAF AMD
KMDW 270248Z 2703/2724 06006KT P6SM FEW150 SCT250
     FM270700 03006KT P6SM BKN150
     FM271500 04006KT P6SM BKN080
     FM271900 05010KT P6SM BKN080=



000
FTUS43 KLOT 270200 AAA
TAFDPA
TAF AMD
KDPA 270248Z 2703/2724 03004KT P6SM FEW150 SCT250
     FM271500 04007KT P6SM BKN080=



000
FTUS43 KLOT 270200 AAA
TAFRFD
TAF AMD
KRFD 270248Z 2703/2724 02005KT P6SM SCT070 SCT150
     FM271500 07007KT P6SM BKN080=



000
FTUS43 KLOT 270200 AAA
TAFGYY
TAF AMD
KGYY 270248Z 2703/2724 03004KT 6SM BR SCT150
      TEMPO 2707/2711 3SM BR
     FM271700 03010KT P6SM BKN080=



000
FTUS43 KLOT 270200 AAA
TAFORD
TAF AMD
KORD 270248Z 2703/2806 04006KT P6SM FEW150 SCT250
     FM270700 03004KT P6SM BKN150
     FM271500 04006KT P6SM BKN080
     FM271900 05010KT P6SM BKN080
     FM280100 05007KT P6SM BKN080=



000
FTUS43 KLOT 262300
TAFGYY
TAF
KGYY 262320Z 2700/2724 11005KT P6SM FEW050 SCT250
     FM270100 03006KT P6SM BKN150
     FM271700 03010KT P6SM BKN080=



000
FTUS43 KLOT 262300
TAFDPA
TAF
KDPA 262320Z 2700/2724 03004KT P6SM FEW150 BKN250
     FM271500 04007KT P6SM BKN080=



000
FTUS43 KLOT 262300
TAFMDW
TAF
KMDW 262320Z 2700/2724 06006KT P6SM FEW150 BKN250
     FM270700 03006KT P6SM BKN150
     FM271500 04006KT P6SM BKN080
     FM271900 05010KT P6SM BKN080=



000
FTUS43 KLOT 262300
TAFRFD
TAF
KRFD 262320Z 2700/2724 VRB03KT P6SM SCT250
     FM270300 03005KT P6SM SCT070 BKN150
     FM271500 07007KT P6SM BKN080=



000
FTUS43 KLOT 262300
TAFORD
TAF
KORD 262320Z 2700/2806 06006KT P6SM FEW150 BKN250
     FM270700 03004KT P6SM BKN150
     FM271500 04006KT P6SM BKN080
     FM271900 05010KT P6SM BKN080
     FM280100 05007KT P6SM BKN080=



000
FTUS43 KLOT 262300
TAFGYY
TAF
KGYY 262320Z 2700/2724 11005KT P6SM FEW050 SCT250
     FM270100 03006KT P6SM BKN150
     FM271700 03010KT P6SM BKN080=



000
FTUS43 KLOT 262100 AAB
TAFGYY
TAF AMD
KGYY 262149Z 2622/2718 11005KT P6SM FEW050 SCT250
     FM270100 04006KT P6SM FEW150 BKN250
     FM271500 04010KT P6SM BKN070=



000
FTUS43 KLOT 262100 AAB
TAFMDW
TAF AMD
KMDW 262149Z 2622/2718 09004KT P6SM FEW050 SCT250
     FM270000 06006KT P6SM FEW150 BKN250
     FM270700 03006KT P6SM BKN070
     FM271500 05010KT P6SM BKN080=



000
FTUS43 KLOT 262100 AAB
TAFRFD
TAF AMD
KRFD 262149Z 2622/2718 03004KT P6SM SCT250
     FM270100 03005KT P6SM SCT070 BKN150
     FM271500 06008KT P6SM BKN070=



000
FTUS43 KLOT 262100 AAB
TAFGYY
TAF AMD
KGYY 262149Z 2622/2718 11005KT P6SM FEW050 SCT250
     FM270100 04006KT P6SM FEW150 BKN250
     FM271500 04010KT P6SM BKN070=



000
FTUS43 KLOT 262100 AAB
TAFDPA
TAF AMD
KDPA 262149Z 2622/2718 09004KT P6SM SCT250
     FM270100 03005KT P6SM FEW150 BKN250
     FM271500 05010KT P6SM BKN080=



000
FTUS43 KLOT 262100 AAB
TAFORD
TAF AMD
KORD 262149Z 2622/2724 09003KT P6SM FEW150 SCT250
     FM270000 06006KT P6SM FEW150 BKN250
     FM270700 03006KT P6SM BKN070
     FM271500 05010KT P6SM BKN080=



000
FTUS43 KLOT 261900 AAA
TAFORD
TAF AMD
KORD 261955Z 2620/2724 09005KT P6SM FEW020 SCT250
     FM270000 06006KT P6SM FEW150 BKN250
     FM270700 03006KT P6SM BKN070
     FM271500 05010KT P6SM BKN080=



000
FTUS43 KLOT 261900 AAA
TAFGYY
TAF AMD
KGYY 261955Z 2620/2718 11010KT P6SM FEW020 SCT250
     FM270100 04006KT P6SM FEW150 BKN250
     FM271500 04010KT P6SM BKN070=



000
FTUS43 KLOT 261900 AAA
TAFRFD
TAF AMD
KRFD 261955Z 2620/2718 04006KT P6SM SCT250
     FM270100 03005KT P6SM SCT070 BKN150
     FM271500 06008KT P6SM BKN070=



000
FTUS43 KLOT 261900 AAA
TAFDPA
TAF AMD
KDPA 261955Z 2620/2718 03005KT P6SM SCT250
     FM270100 03005KT P6SM FEW150 BKN250
     FM271500 05010KT P6SM BKN080=



000
FTUS43 KLOT 261900 AAA
TAFMDW
TAF AMD
KMDW 261955Z 2620/2718 09005KT P6SM FEW020 SCT250
     FM270000 06006KT P6SM FEW150 BKN250
     FM270700 03006KT P6SM BKN070
     FM271500 05010KT P6SM BKN080=



000
FTUS43 KLOT 261900 AAA
TAFGYY
TAF AMD
KGYY 261955Z 2620/2718 11010KT P6SM FEW020 SCT250
     FM270100 04006KT P6SM FEW150 BKN250
     FM271500 04010KT P6SM BKN070=



000
FTUS43 KLOT 261700
TAFGYY
TAF
KGYY 261726Z 2618/2718 36013G30KT P6SM SCT020 BKN040 BKN250
     FM261900 03010KT P6SM SCT040 SCT250
     FM270100 04006KT P6SM FEW150 BKN250
     FM271500 04010KT P6SM BKN070=



000
FTUS43 KLOT 261700
TAFMDW
TAF
KMDW 261726Z 2618/2718 06010KT P6SM SCT030 SCT250
     FM262000 03007KT P6SM SCT040 SCT250
     FM270000 06006KT P6SM FEW150 BKN250
     FM270700 03006KT P6SM BKN070
     FM271500 05010KT P6SM BKN080=



000
FTUS43 KLOT 261700
TAFDPA
TAF
KDPA 261726Z 2618/2718 08010KT P6SM SCT040
     FM262100 03008KT P6SM SCT250
     FM270100 03005KT P6SM FEW150 BKN250
     FM271500 05010KT P6SM BKN080=



000
FTUS43 KLOT 261700
TAFRFD
TAF
KRFD 261726Z 2618/2718 04007KT P6SM FEW040 SCT250
     FM270100 03005KT P6SM SCT070 BKN150
     FM271500 06008KT P6SM BKN070=



000
FTUS43 KLOT 261700
TAFGYY
TAF
KGYY 261726Z 2618/2718 36013G30KT P6SM SCT020 BKN040 BKN250
     FM261900 03010KT P6SM SCT040 SCT250
     FM270100 04006KT P6SM FEW150 BKN250
     FM271500 04010KT P6SM BKN070=



000
FTUS43 KLOT 261700
TAFORD
TAF
KORD 261726Z 2618/2724 06010KT P6SM SCT030 SCT250
     FM262000 03007KT P6SM SCT040 SCT250
     FM270000 06006KT P6SM FEW150 BKN250
     FM270700 03006KT P6SM BKN070
     FM271500 05010KT P6SM BKN080=



000
FTUS43 KLOT 261500 AAB
TAFGYY
TAF AMD
KGYY 261554Z 2616/2712 19008KT P6SM BKN022 BKN250
     FM261630 35020G30KT 1SM TSRA BKN015 BKN040CB BKN150
     FM261800 04008KT P6SM SCT020 BKN040 BKN250
     FM270100 03006KT P6SM FEW150 BKN250=



000
FTUS43 KLOT 261500 AAB
TAFDPA
TAF AMD
KDPA 261554Z 2616/2712 36007KT P6SM BKN015 BKN050
     FM261700 02008KT P6SM BKN020 BKN040
     FM262200 02008KT P6SM FEW040 BKN250
     FM270100 03005KT P6SM FEW150 BKN250=



000
FTUS43 KLOT 261500 AAB
TAFRFD
TAF AMD
KRFD 261554Z 2616/2712 06010KT P6SM SCT035 BKN250
     FM261800 06009KT P6SM SCT040 BKN250
     FM270100 03005KT P6SM SCT070 BKN250 PROB30 2710/2712 5SM TSRA
      BKN040CB=



000
FTUS43 KLOT 261500 AAB
TAFGYY
TAF AMD
KGYY 261554Z 2616/2712 19008KT P6SM BKN022 BKN250
     FM261630 35020G30KT 1SM TSRA BKN015 BKN040CB BKN150
     FM261800 04008KT P6SM SCT020 BKN040 BKN250
     FM270100 03006KT P6SM FEW150 BKN250=



000
FTUS43 KLOT 261500 AAC
TAFORD
TAF AMD
KORD 261554Z 2616/2718 36008KT P6SM BKN020 BKN050 BKN100
     FM261700 02008KT P6SM BKN025 BKN040
     FM262000 03007KT P6SM SCT040 BKN250
     FM270000 06006KT P6SM FEW150 BKN250
     FM270700 03006KT P6SM BKN070 PROB30 2712/2716 5SM TSRA
      BKN040CB=



000
FTUS43 KLOT 261500 AAB
TAFMDW
TAF AMD
KMDW 261554Z 2616/2712 36008KT P6SM TSRA BKN016 BKN040CB BKN150
      TEMPO 2616/2617 36020G30KT 2SM TSRA
     FM261700 02008KT P6SM BKN020 BKN040
     FM262000 03007KT P6SM SCT040 BKN250
     FM270000 06006KT P6SM FEW150 BKN250
     FM270700 03006KT P6SM BKN070=



000
FTUS43 KLOT 261500 AAB
TAFORD
TAF AMD
KORD 261529Z 2615/2718 33007KT 6SM TSRA SCT020 SCT060CB BKN100
     FM261600 36008KT P6SM VCTS SCT020 BKN050CB
     FM261700 02007KT P6SM BKN040
     FM262000 03007KT P6SM SCT040 BKN250
     FM270000 06006KT P6SM FEW150 BKN250
     FM270700 03006KT P6SM BKN070 PROB30 2712/2716 5SM TSRA
      BKN040CB=



000
FTUS43 KLOT 261400 AAA
TAFMDW
TAF AMD
KMDW 261403Z 2614/2712 24007KT P6SM VCTS SCT060CB BKN100
     FM261600 36008KT P6SM SCT040 BKN250
     FM261700 02007KT P6SM BKN040
     FM262000 03007KT P6SM SCT040 BKN250
     FM270000 06006KT P6SM FEW150 BKN250
     FM270700 03006KT P6SM BKN070=



000
FTUS43 KLOT 261400 AAA
TAFGYY
TAF AMD
KGYY 261403Z 2614/2712 20007KT P6SM SCT070 BKN250
     FM261600 36008KT P6SM VCTS SCT040CB BKN250
     FM261700 02008KT P6SM VCTS SCT040CB BKN250
     FM261900 04007KT P6SM FEW040 BKN250
     FM270100 03006KT P6SM FEW150 BKN250=



000
FTUS43 KLOT 261400 AAA
TAFRFD
TAF AMD
KRFD 261403Z 2614/2712 36007KT P6SM SCT050 BKN100
     FM261420 36020G40KT 2SM TSRA BKN020 BKN050CB
     FM261530 03014KT P6SM SCT025 BKN060
     FM261800 33009KT P6SM SCT040 BKN250
     FM270100 03005KT P6SM SCT070 BKN250 PROB30 2710/2712 5SM TSRA
      BKN040CB=



000
FTUS43 KLOT 261400 AAA
TAFGYY
TAF AMD
KGYY 261403Z 2614/2712 20007KT P6SM SCT070 BKN250
     FM261600 36008KT P6SM VCTS SCT040CB BKN250
     FM261700 02008KT P6SM VCTS SCT040CB BKN250
     FM261900 04007KT P6SM FEW040 BKN250
     FM270100 03006KT P6SM FEW150 BKN250=



000
FTUS43 KLOT 261400 AAA
TAFORD
TAF AMD
KORD 261403Z 2614/2718 25007KT P6SM VCTS SCT060CB BKN100
     FM261600 36008KT P6SM VCTS SCT020 BKN050CB
     FM261700 02007KT P6SM BKN040
     FM262000 03007KT P6SM SCT040 BKN250
     FM270000 06006KT P6SM FEW150 BKN250
     FM270700 03006KT P6SM BKN070 PROB30 2712/2716 5SM TSRA
      BKN040CB=



000
FTUS43 KLOT 261400 AAA
TAFDPA
TAF AMD
KDPA 261403Z 2614/2712 26007KT P6SM VCTS SCT060CB BKN100
     FM261600 36007KT P6SM VCTS SCT020 BKN050CB
     FM261700 02007KT P6SM BKN040
     FM262200 02008KT P6SM FEW040 BKN250
     FM270100 03005KT P6SM FEW150 BKN250=



000
FTUS43 KLOT 261100
TAFGYY
TAF
KGYY 261136Z 2612/2712 21007KT P6SM VCTS SCT035 BKN060CB
      TEMPO 2612/2614 3SM TSRA BKN015 OVC035CB
     FM261500 36008KT P6SM VCSH SCT040 BKN250
     FM261700 02008KT P6SM VCTS SCT040CB BKN250
     FM261900 04010KT P6SM FEW040 BKN250
     FM270100 03006KT P6SM FEW150 BKN250=



000
FTUS43 KLOT 261100
TAFRFD
TAF
KRFD 261136Z 2612/2712 28007KT P6SM VCTS SCT035 BKN060CB
      TEMPO 2612/2613 3SM TSRA BKN015 OVC035CB
     FM261300 36008KT P6SM VCTS SCT040CB BKN250
      TEMPO 2615/2617 3SM TSRA BKN015 OVC035CB
     FM261800 33009KT P6SM SCT040 BKN250
     FM270100 03005KT P6SM SCT070 BKN250 PROB30 2710/2712 5SM TSRA
      BKN040CB=



000
FTUS43 KLOT 261100
TAFGYY
TAF
KGYY 261136Z 2612/2712 21007KT P6SM VCTS SCT035 BKN060CB
      TEMPO 2612/2614 3SM TSRA BKN015 OVC035CB
     FM261500 36008KT P6SM VCSH SCT040 BKN250
     FM261700 02008KT P6SM VCTS SCT040CB BKN250
     FM261900 04010KT P6SM FEW040 BKN250
     FM270100 03006KT P6SM FEW150 BKN250=



000
FTUS43 KLOT 261100
TAFDPA
TAF
KDPA 261136Z 2612/2712 23007KT P6SM VCTS SCT035 BKN060CB
      TEMPO 2612/2614 3SM TSRA BKN015 OVC035CB
     FM261400 35008KT P6SM VCSH SCT040 BKN250
     FM261600 34007KT P6SM SCT040 BKN250
      TEMPO 2616/2618 6SM SHRA BKN040
     FM262200 02008KT P6SM FEW040 BKN250
     FM270100 03005KT P6SM FEW150 BKN250=



000
FTUS43 KLOT 261100
TAFMDW
TAF
KMDW 261136Z 2612/2712 23007KT P6SM VCTS SCT035 BKN060CB
      TEMPO 2612/2614 3SM TSRA BKN015 OVC035CB
     FM261430 36008KT P6SM VCSH SCT040 BKN250
     FM261700 01007KT P6SM BKN040
     FM262000 03010KT P6SM SCT040 BKN250
     FM270000 06006KT P6SM FEW150 BKN250
     FM270700 03006KT P6SM BKN070=



000
FTUS43 KLOT 261100
TAFORD
TAF
KORD 261136Z 2612/2718 23007KT P6SM VCTS SCT035 BKN060CB
      TEMPO 2612/2614 3SM TSRA BKN015 OVC035CB
     FM261400 36008KT P6SM VCSH SCT040 BKN250
     FM261700 01007KT P6SM BKN040
     FM262000 03010KT P6SM SCT040 BKN250
     FM270000 06006KT P6SM FEW150 BKN250
     FM270700 03006KT P6SM BKN070 PROB30 2712/2716 5SM TSRA
      BKN040CB=



    US Dept of Commerce
    National Oceanic and Atmospheric Administration
    National Weather Service
    1325 East West Highway
    Silver Spring, MD 20910
    Page Author: NWS Internet Services Team
Disclaimer
Information Quality
Credits
Glossary
Privacy Policy
Freedom of Information Act (FOIA)
About Us
Career Opportunities